Kezdőlap
METAR-TAF:

METAR-TAF

Repülőterek :

Trabzon, Törökország

földrajzi szélesség: 41-00N, földrajzi hosszúság: 039-43E, magasság: 35 m

Jelenlegi meteorológiai megfigyelések

A jelentés 31 perccel ezelõtt készült, 04:50 UTC
Dél-délnyugati szél 3 kt
Hőmérséklet 5°C
Páratartalom 65%
Légköri nyomás 1024 hPa
Látótávolság 10 km, vagy több
Szórványos felhőzet 10000 lábon

METAR: LTCG 200450Z 20003KT 9999 SCT100 05/M01 Q1024 NOSIG RMK RWY29 23003KT 180V260

Idő: 08:21 (05:21 UTC)

Előrejelzés

A jelentés 6 órával és 41 perccel ezelõtt készült, 22:40 UTC
Az előrejelzés 20-én 00 óra UTC és 20-én 24 óra UTC között érvényes
Különbözõ irányokból fújó szél 2 kt
Látótávolság 10 km, vagy több
felhőtlen 1500 m magasságban, és nincs gomolyfelhõ

TAF: LTCG 192240Z 2000/2024 VRB02KT CAVOK

Meteorológiai megfigyelések és előrejelzések több, mint 4000 repülőtéren (METAR és TAF jelentéseket).

A térképen piros és sárga pontok jelzik az elérhető meteorológiai állomásokat.

Mozgassa az egeret a pont fölött, hogy megjelenjen az állomás neve.

Azután kattintson az időjárási megfigyelések és előrejelzések megtekintéséhez.

A térkép megváltoztatása: kattintson a fekete keresztel jelölt zöld gombra ráközelítéshez, a vonallal jelölt zöld gombra távolításhoz, vagy a zöld nyilakra a szomszédos térképek eléréséhez.


METAR-TAF: